Detall de PIREP

Printer-friendly versionPDF version

[2012/09/13 07:49:00]
Flight IATA:CT3226
Pilot Number:042
Company ICAO:CAT
Aircraft Type:MD11/E
PAX:303
Aircraft Registration:PAX
Departing Airport: LEPA
Destination Airport: EGLL
Alternate Airport:EGKK
Online: VATSIM
Route:DRAGO UN863 TIRAV UY87 TERPO UP87 DOMUT
Flight Level:F360
No Slew and time accel
No pause
Crash detect
Detect pilot in Cockpit between each 30 and 45 minutes
07:49 Zero fuel Weight: 377786 Lbs, Fuel Weight: 32925 Lbs
07:49 VATSIM:LEPA 130730Z 06005KT 020V110 9999 FEW025 BKN050 20/14 Q1015 NOSIG
07:49 VATSIM:EGLL 130720Z 31005KT CAVOK 10/04 Q1020
07:49 VOICE CATALONIAN
08:03 Parking Brakes off
08:15 Take-off
08:15 Take off Weight: 486123 Lbs
08:15 Wind: 071º @ 005 Knots Heading: 058º
08:15 POS N39º 33´ 11´´ E002º 45´ 25´´
08:16 Gear Up: 168 Knots
08:16 Flaps:5 at 168 Knots
08:16 Flaps:4 at 173 Knots
08:16 Flaps:3 at 174 Knots
08:17 Flaps:2 at 174 Knots
08:17 Flaps:1 at 175 Knots
08:18 Flaps:0 at 209 Knots
08:31 Wind:353º@075 Knots Heading: 340º Ground Speed: 409 Knots Altitude 33139 ft
08:33 TOC
08:33 Fuel Weight: 97165 Lb
08:46 Wind:357º@078 Knots Heading: 355º Ground Speed: 395 Knots Altitude 36056 ft
09:01 Wind:357º@087 Knots Heading: 355º Ground Speed: 381 Knots Altitude 36145 ft
09:16 Wind:001º@086 Knots Heading: 339º Ground Speed: 393 Knots Altitude 36148 ft
09:31 Wind:357º@074 Knots Heading: 326º Ground Speed: 408 Knots Altitude 36197 ft
09:46 Wind:351º@060 Knots Heading: 354º Ground Speed: 406 Knots Altitude 36256 ft
10:01 Wind:346º@072 Knots Heading: 000º Ground Speed: 392 Knots Altitude 36263 ft
10:04 TOD
10:04 Fuel Weight: 73743 Lb
10:16 Wind:342º@035 Knots Heading: 043º Ground Speed: 323 Knots Altitude 11948 ft
10:20 Flaps:1 at 218 Knots
10:23 Flaps:2 at 220 Knots
10:23 Flaps:3 at 220Knots
10:23 Flaps:4 at 219 Knots
10:25 Flaps:5 at 180 Knots
10:25 Flaps:6 at 180 Knots
10:26 Gear Down: 163 Knots
10:26 Flaps:7 at 172 Knots
10:29 TouchDown:Rate -189 ft/min Speed: 154 Knots
10:29 VATSIM:EGLL 130950Z 28007KT 230V330 CAVOK 14/07 Q1021 NOSIG
10:29 Land
10:29 Wind:290º@005 Knots
10:29 Heading: 269º
10:29 Flight Duration: 02:13
10:29 Landing Weight: 447218 Lbs
10:29 POS N51º 27´ 53´´ W000º 27´ 19´´
10:34 Parking brakes on
10:34 Block to Block Duration: 02:31
10:34 Final Fuel: 68798 Lbls
10:34 Spent Fuel: 878671486 Lbls
10:34 Flight Length: 825 NM
10:34 TOD Land Length: 122 NM

Exportar CSV

Powered by Drupal - Modified by Danger4k